Time;durP1;ratioP1;P1;durP2;ratioP2;P2;SDS_P1;SDS_P2;PMS_P1;PMS_P2;Temp;Humidity;BMP_temperature;BMP_pressure;BME280_temperature;BME280_humidity;BME280_pressure;Samples;Min_cycle;Max_cycle;Signal;HPM_P1;HPM_P2
2022/06/23 00:01:08;;;;;;;0.60;0.60;;;;;;;;;;4905973;28;88768;-74
2022/06/23 00:03:57;;;;;;;1.20;1.10;;;;;;;;;;4922385;28;91941;-75
2022/06/23 00:06:38;;;;;;;1.43;0.70;;;;;;;;;;4923028;28;88858;-74
2022/06/23 00:09:29;;;;;;;1.57;0.87;;;;;;;;;;4920535;28;88318;-74
2022/06/23 00:11:58;;;;;;;1.37;0.90;;;;;;;;;;4919381;28;88647;-73
2022/06/23 00:14:29;;;;;;;3.53;0.53;;;;;;;;;;4909954;28;89638;-73
2022/06/23 00:17:15;;;;;;;1.00;1.00;;;;;;;;;;4905494;28;88809;-73
2022/06/23 00:19:44;;;;;;;2.33;0.90;;;;;;;;;;4904385;28;88701;-74
2022/06/23 00:22:13;;;;;;;0.90;0.90;;;;;;;;;;4903732;28;88861;-73
2022/06/23 00:24:41;;;;;;;0.70;0.70;;;;;;;;;;4902786;28;89876;-73
2022/06/23 00:27:37;;;;;;;3.60;0.90;;;;;;;;;;4915319;28;89185;-72
2022/06/23 00:30:21;;;;;;;1.00;0.90;;;;;;;;;;4922364;28;88836;-74
2022/06/23 00:32:50;;;;;;;1.50;0.90;;;;;;;;;;4922702;28;88568;-73
2022/06/23 00:35:30;;;;;;;1.20;1.10;;;;;;;;;;4911329;28;89487;-73
2022/06/23 00:38:01;;;;;;;1.07;0.93;;;;;;;;;;4914481;28;88625;-74
2022/06/23 00:40:41;;;;;;;1.70;0.97;;;;;;;;;;4905138;28;90309;-73
2022/06/23 00:43:13;;;;;;;1.27;1.17;;;;;;;;;;4923185;28;88578;-74
2022/06/23 00:45:45;;;;;;;2.33;1.40;;;;;;;;;;4921905;28;89609;-74
2022/06/23 00:48:14;;;;;;;1.30;1.00;;;;;;;;;;4916610;28;91357;-73
2022/06/23 00:50:47;;;;;;;1.30;0.87;;;;;;;;;;4903490;28;89004;-74
2022/06/23 00:53:18;;;;;;;0.93;0.80;;;;;;;;;;4903564;28;88507;-74
2022/06/23 00:55:50;;;;;;;0.77;0.77;;;;;;;;;;4902373;28;90256;-73
2022/06/23 00:58:31;;;;;;;0.90;0.80;;;;;;;;;;4914132;28;88977;-73
2022/06/23 01:01:07;;;;;;;0.53;0.53;;;;;;;;;;4921845;28;88432;-74
2022/06/23 01:03:39;;;;;;;1.47;0.53;;;;;;;;;;4903511;28;88636;-74
2022/06/23 01:06:14;;;;;;;2.10;0.70;;;;;;;;;;4903252;28;90650;-72
2022/06/23 01:08:47;;;;;;;0.80;0.80;;;;;;;;;;4921438;28;89479;-74
2022/06/23 01:11:18;;;;;;;3.23;0.93;;;;;;;;;;4921567;28;88786;-73
2022/06/23 01:13:48;;;;;;;1.10;1.00;;;;;;;;;;4922213;28;88327;-74
2022/06/23 01:16:23;;;;;;;0.97;0.80;;;;;;;;;;4922290;28;89654;-74
2022/06/23 01:18:53;;;;;;;0.70;0.70;;;;;;;;;;4886891;28;91020;-67
2022/06/23 01:21:24;;;;;;;1.80;1.37;;;;;;;;;;4901684;28;88928;-68
2022/06/23 01:24:09;;;;;;;1.60;1.00;;;;;;;;;;4902568;28;88558;-68
2022/06/23 01:26:52;;;;;;;1.23;1.10;;;;;;;;;;4916692;28;91400;-67
2022/06/23 01:29:23;;;;;;;1.47;1.20;;;;;;;;;;4921450;28;89290;-67
2022/06/23 01:34:48;;;;;;;2.37;1.93;;;;;;;;;;4920188;28;88611;-67
2022/06/23 01:37:22;;;;;;;5.37;2.90;;;;;;;;;;4919238;28;93265;-67
2022/06/23 01:39:54;;;;;;;3.33;1.97;;;;;;;;;;4900544;28;92755;-67
2022/06/23 01:42:24;;;;;;;1.60;1.50;;;;;;;;;;4918214;28;88492;-67
2022/06/23 01:44:58;;;;;;;3.13;1.77;;;;;;;;;;4921187;28;88435;-67
2022/06/23 01:47:30;;;;;;;2.30;2.10;;;;;;;;;;4902763;28;90675;-67
2022/06/23 01:50:37;;;;;;;4.10;2.37;;;;;;;;;;4919629;28;90770;-67
2022/06/23 01:53:24;;;;;;;2.20;1.77;;;;;;;;;;4920594;28;88334;-67
2022/06/23 01:56:05;;;;;;;2.27;2.07;;;;;;;;;;4920296;28;88460;-68
2022/06/23 01:58:40;;;;;;;3.80;2.50;;;;;;;;;;4919469;28;90005;-67
2022/06/23 02:01:15;;;;;;;3.83;2.40;;;;;;;;;;4920412;28;89455;-67
2022/06/23 02:03:47;;;;;;;3.83;2.57;;;;;;;;;;4921583;28;88459;-67
2022/06/23 02:06:30;;;;;;;2.60;2.10;;;;;;;;;;4922109;28;88521;-67
2022/06/23 02:09:06;;;;;;;3.77;2.20;;;;;;;;;;4921006;28;89535;-67
2022/06/23 02:11:54;;;;;;;3.00;2.60;;;;;;;;;;4860094;29;89065;-67
2022/06/23 02:14:45;;;;;;;4.17;2.67;;;;;;;;;;4861750;29;88679;-67
2022/06/23 02:17:29;;;;;;;3.97;2.37;;;;;;;;;;4856488;29;88783;-68
2022/06/23 02:20:17;;;;;;;2.87;2.40;;;;;;;;;;4860620;29;89526;-67
2022/06/23 02:22:50;;;;;;;5.60;2.73;;;;;;;;;;4861895;29;88624;-67
2022/06/23 02:25:30;;;;;;;4.23;2.87;;;;;;;;;;4851048;29;88470;-67
2022/06/23 02:28:08;;;;;;;3.67;3.17;;;;;;;;;;4860749;28;88575;-68
2022/06/23 02:30:45;;;;;;;3.83;2.13;;;;;;;;;;4861539;29;89639;-66
2022/06/23 02:33:22;;;;;;;4.93;2.90;;;;;;;;;;4861335;29;90253;-67
2022/06/23 02:35:56;;;;;;;3.20;2.50;;;;;;;;;;4869974;28;88841;-67
2022/06/23 02:38:26;;;;;;;2.07;1.87;;;;;;;;;;4909421;28;88414;-67
2022/06/23 02:40:56;;;;;;;4.60;2.30;;;;;;;;;;4920301;28;90577;-67
2022/06/23 02:43:26;;;;;;;5.57;2.80;;;;;;;;;;4920382;28;89999;-68
2022/06/23 02:46:13;;;;;;;3.80;2.83;;;;;;;;;;4919751;28;88413;-68
2022/06/23 02:49:07;;;;;;;3.90;2.20;;;;;;;;;;4911951;28;88479;-67
2022/06/23 02:51:52;;;;;;;2.80;2.43;;;;;;;;;;4876442;28;89682;-67
2022/06/23 02:54:36;;;;;;;5.30;3.37;;;;;;;;;;4900179;28;91007;-68
2022/06/23 02:57:22;;;;;;;3.43;2.97;;;;;;;;;;4913102;28;89127;-68
2022/06/23 03:00:01;;;;;;;4.60;2.67;;;;;;;;;;4917952;28;88614;-67
2022/06/23 03:02:43;;;;;;;3.50;2.87;;;;;;;;;;4919084;28;91005;-67
2022/06/23 03:05:21;;;;;;;6.43;3.40;;;;;;;;;;4903856;28;93359;-67
2022/06/23 03:08:12;;;;;;;5.77;3.33;;;;;;;;;;4920184;28;88523;-67
2022/06/23 03:10:43;;;;;;;7.30;4.20;;;;;;;;;;4920194;28;88607;-70
2022/06/23 03:13:22;;;;;;;4.27;3.23;;;;;;;;;;4919089;28;89478;-68
2022/06/23 03:15:53;;;;;;;7.40;4.30;;;;;;;;;;4915254;28;88406;-68
2022/06/23 03:18:26;;;;;;;6.53;4.50;;;;;;;;;;4920339;28;88626;-68
2022/06/23 03:21:09;;;;;;;6.23;3.73;;;;;;;;;;4919672;28;88636;-68
2022/06/23 03:23:51;;;;;;;6.40;3.93;;;;;;;;;;4918522;28;89605;-67
2022/06/23 03:26:27;;;;;;;8.03;4.07;;;;;;;;;;4919458;28;91471;-67
2022/06/23 03:28:58;;;;;;;7.90;4.50;;;;;;;;;;4920318;28;88450;-68
2022/06/23 03:31:28;;;;;;;6.07;4.63;;;;;;;;;;4901418;28;88667;-68
2022/06/23 03:33:58;;;;;;;5.80;4.50;;;;;;;;;;4911490;28;88566;-68
2022/06/23 03:36:31;;;;;;;8.17;5.43;;;;;;;;;;4909479;28;89173;-68
2022/06/23 03:42:07;;;;;;;5.90;4.43;;;;;;;;;;4922993;28;88584;-68
2022/06/23 03:44:53;;;;;;;8.60;4.60;;;;;;;;;;4921345;28;89594;-68
2022/06/23 03:47:38;;;;;;;6.43;4.37;;;;;;;;;;4922725;28;88486;-67
2022/06/23 03:50:36;;;;;;;8.20;6.07;;;;;;;;;;4909703;28;91956;-68
2022/06/23 03:53:23;;;;;;;6.93;4.63;;;;;;;;;;4922417;28;88608;-67
2022/06/23 03:55:55;;;;;;;8.33;4.87;;;;;;;;;;4921283;28;89551;-68
2022/06/23 03:58:26;;;;;;;7.40;5.00;;;;;;;;;;4912830;28;88503;-73
2022/06/23 04:04:02;;;;;;;8.67;4.97;;;;;;;;;;4903667;28;88629;-73
2022/06/23 04:06:34;;;;;;;7.07;5.37;;;;;;;;;;4904806;28;89199;-68
2022/06/23 04:09:08;;;;;;;7.27;5.00;;;;;;;;;;4904126;28;88437;-69
2022/06/23 04:11:48;;;;;;;7.37;5.20;;;;;;;;;;4905293;28;88670;-69
2022/06/23 04:14:20;;;;;;;6.53;4.97;;;;;;;;;;4902859;28;88569;-68
2022/06/23 04:16:49;;;;;;;9.57;4.87;;;;;;;;;;4903800;28;90843;-68
2022/06/23 04:19:21;;;;;;;5.83;4.60;;;;;;;;;;4903673;28;88862;-68
2022/06/23 04:21:58;;;;;;;8.87;4.87;;;;;;;;;;4903526;28;88548;-73
2022/06/23 04:24:29;;;;;;;7.50;5.13;;;;;;;;;;4902499;28;88676;-74
2022/06/23 04:27:15;;;;;;;8.20;5.33;;;;;;;;;;4917762;28;91402;-74
2022/06/23 04:29:44;;;;;;;8.30;5.90;;;;;;;;;;4922861;28;91997;-74
2022/06/23 04:32:15;;;;;;;9.10;5.07;;;;;;;;;;4910258;28;88337;-74
2022/06/23 04:34:48;;;;;;;7.47;5.20;;;;;;;;;;4903746;28;88525;-74
2022/06/23 04:37:18;;;;;;;8.60;5.57;;;;;;;;;;4903175;28;89323;-74
2022/06/23 04:39:47;;;;;;;8.73;5.67;;;;;;;;;;4907778;28;90090;-74
2022/06/23 04:42:17;;;;;;;10.03;6.23;;;;;;;;;;4921539;28;88998;-68
2022/06/23 04:44:46;;;;;;;9.97;5.60;;;;;;;;;;4922310;28;89357;-74
2022/06/23 04:47:22;;;;;;;10.50;5.90;;;;;;;;;;4922024;28;89441;-74
2022/06/23 04:49:54;;;;;;;8.93;5.67;;;;;;;;;;4921871;28;90102;-74
2022/06/23 04:52:25;;;;;;;7.93;5.47;;;;;;;;;;4919366;28;88633;-74
2022/06/23 04:55:04;;;;;;;8.07;5.00;;;;;;;;;;4905584;28;88681;-73
2022/06/23 04:57:34;;;;;;;9.50;5.70;;;;;;;;;;4922827;28;90637;-74
2022/06/23 05:00:06;;;;;;;5.80;4.73;;;;;;;;;;4905891;28;91921;-73
2022/06/23 05:02:43;;;;;;;8.10;4.63;;;;;;;;;;4921729;28;88180;-73
2022/06/23 05:05:23;;;;;;;7.60;4.90;;;;;;;;;;4920694;28;88699;-73
2022/06/23 05:07:53;;;;;;;11.13;5.40;;;;;;;;;;4922108;28;89931;-73
2022/06/23 05:10:37;;;;;;;9.40;4.77;;;;;;;;;;4919641;28;88631;-73
2022/06/23 05:13:15;;;;;;;9.03;5.67;;;;;;;;;;4921792;28;88879;-73
2022/06/23 05:16:06;;;;;;;11.67;5.40;;;;;;;;;;4922471;28;88647;-74
2022/06/23 05:18:49;;;;;;;6.23;4.47;;;;;;;;;;4918936;28;89634;-73
2022/06/23 05:21:20;;;;;;;5.80;3.83;;;;;;;;;;4916391;28;88790;-74
2022/06/23 05:23:51;;;;;;;4.73;3.97;;;;;;;;;;4902791;28;88548;-74
2022/06/23 05:26:26;;;;;;;4.67;3.27;;;;;;;;;;4903343;28;88524;-73
2022/06/23 05:28:58;;;;;;;4.97;3.30;;;;;;;;;;4902792;28;91007;-73
2022/06/23 05:31:35;;;;;;;6.33;3.60;;;;;;;;;;4902531;28;88839;-74
2022/06/23 05:34:09;;;;;;;4.63;3.37;;;;;;;;;;4902660;28;88663;-73
2022/06/23 05:36:43;;;;;;;4.97;3.00;;;;;;;;;;4903294;28;88465;-77
2022/06/23 05:39:20;;;;;;;5.10;2.87;;;;;;;;;;4918659;28;89632;-75
2022/06/23 05:41:58;;;;;;;3.97;2.70;;;;;;;;;;4902362;28;90435;-76
2022/06/23 05:44:44;;;;;;;4.67;3.17;;;;;;;;;;4902116;28;88575;-77
2022/06/23 05:47:14;;;;;;;5.87;3.50;;;;;;;;;;4920525;28;88441;-76
2022/06/23 05:49:47;;;;;;;3.97;2.90;;;;;;;;;;4921175;28;89708;-76
2022/06/23 05:52:21;;;;;;;2.83;2.33;;;;;;;;;;4921280;28;90065;-76
2022/06/23 05:54:54;;;;;;;3.00;2.37;;;;;;;;;;4905592;28;90313;-76
2022/06/23 05:57:23;;;;;;;2.57;2.30;;;;;;;;;;4882903;28;88665;-76
2022/06/23 05:59:54;;;;;;;2.37;1.80;;;;;;;;;;4883155;28;88937;-76
2022/06/23 06:02:30;;;;;;;3.53;1.87;;;;;;;;;;4882942;28;90150;-76
2022/06/23 06:05:01;;;;;;;4.00;1.90;;;;;;;;;;4894206;28;88616;-76
2022/06/23 06:07:33;;;;;;;4.63;1.60;;;;;;;;;;4901601;28;88456;-76
2022/06/23 06:10:05;;;;;;;2.37;1.80;;;;;;;;;;4897435;28;90968;-76
2022/06/23 06:12:34;;;;;;;2.17;1.13;;;;;;;;;;4899542;28;88922;-76
2022/06/23 06:15:05;;;;;;;2.17;1.30;;;;;;;;;;4897112;28;88490;-75
2022/06/23 06:17:36;;;;;;;3.90;1.57;;;;;;;;;;4882908;28;89869;-76
2022/06/23 06:20:08;;;;;;;2.03;1.60;;;;;;;;;;4882309;28;90662;-76
2022/06/23 06:22:55;;;;;;;2.20;1.43;;;;;;;;;;4866095;28;89085;-77
2022/06/23 06:25:32;;;;;;;2.77;1.40;;;;;;;;;;4891513;28;88537;-77
2022/06/23 06:28:06;;;;;;;2.63;1.50;;;;;;;;;;4902453;28;88397;-76
2022/06/23 06:30:36;;;;;;;1.90;1.47;;;;;;;;;;4902271;28;92931;-77
2022/06/23 06:33:07;;;;;;;4.13;1.40;;;;;;;;;;4899398;28;89273;-77
2022/06/23 06:35:56;;;;;;;4.07;1.50;;;;;;;;;;4895911;28;88564;-76
2022/06/23 06:38:28;;;;;;;1.63;1.20;;;;;;;;;;4885502;28;88324;-76
2022/06/23 06:41:07;;;;;;;4.63;1.93;;;;;;;;;;4886919;28;88369;-76
2022/06/23 06:43:36;;;;;;;4.23;2.17;;;;;;;;;;4893710;28;90329;-76
2022/06/23 06:46:04;;;;;;;1.80;1.40;;;;;;;;;;4886321;28;88335;-76
2022/06/23 06:48:40;;;;;;;2.20;1.73;;;;;;;;;;4889633;28;88700;-77
2022/06/23 06:51:19;;;;;;;2.33;1.70;;;;;;;;;;4896446;28;92611;-75
2022/06/23 06:53:49;;;;;;;2.20;1.27;;;;;;;;;;4890258;28;91572;-77
2022/06/23 06:56:31;;;;;;;5.10;1.90;;;;;;;;;;4906041;28;89277;-76
2022/06/23 06:59:01;;;;;;;3.30;1.70;;;;;;;;;;4915558;28;88665;-76
2022/06/23 07:01:36;;;;;;;2.10;1.60;;;;;;;;;;4906717;28;89269;-76
2022/06/23 07:04:07;;;;;;;5.53;1.73;;;;;;;;;;4920522;28;93078;-76
2022/06/23 07:06:39;;;;;;;2.23;1.73;;;;;;;;;;4921895;28;88689;-77
2022/06/23 07:09:09;;;;;;;3.30;1.60;;;;;;;;;;4912433;28;88712;-76
2022/06/23 07:11:47;;;;;;;2.83;1.53;;;;;;;;;;4915636;28;91284;-75
2022/06/23 07:14:25;;;;;;;2.90;1.93;;;;;;;;;;4904393;28;91341;-75
2022/06/23 07:16:55;;;;;;;3.07;1.73;;;;;;;;;;4912672;28;88457;-76
2022/06/23 07:19:28;;;;;;;2.83;1.97;;;;;;;;;;4923559;28;88404;-75
2022/06/23 07:22:00;;;;;;;3.53;2.43;;;;;;;;;;4910355;28;91413;-75
2022/06/23 07:24:29;;;;;;;3.13;1.83;;;;;;;;;;4921680;28;89042;-76
2022/06/23 07:27:07;;;;;;;2.13;1.77;;;;;;;;;;4923378;28;88608;-76
2022/06/23 07:29:37;;;;;;;4.50;2.13;;;;;;;;;;4911014;28;88683;-77
2022/06/23 07:32:09;;;;;;;1.73;1.63;;;;;;;;;;4904414;28;88984;-76
2022/06/23 07:34:47;;;;;;;2.10;1.80;;;;;;;;;;4913413;28;88803;-76
2022/06/23 07:37:23;;;;;;;2.90;1.37;;;;;;;;;;4920996;28;88493;-76
2022/06/23 07:39:55;;;;;;;2.50;1.80;;;;;;;;;;4921830;28;88581;-77
2022/06/23 07:42:31;;;;;;;2.73;2.00;;;;;;;;;;4917238;28;89681;-75
2022/06/23 07:45:01;;;;;;;6.00;2.17;;;;;;;;;;4893007;28;89171;-75
2022/06/23 07:47:30;;;;;;;2.80;1.60;;;;;;;;;;4907684;28;88802;-75
2022/06/23 07:50:05;;;;;;;9.80;2.23;;;;;;;;;;4910416;28;88708;-74
2022/06/23 07:52:37;;;;;;;2.43;1.90;;;;;;;;;;4913256;28;91531;-76
2022/06/23 07:55:09;;;;;;;2.70;1.70;;;;;;;;;;4916195;28;89097;-75
2022/06/23 07:58:00;;;;;;;3.43;1.97;;;;;;;;;;4907914;28;90643;-75
2022/06/23 08:00:32;;;;;;;3.37;2.27;;;;;;;;;;4906392;28;88597;-75
2022/06/23 08:03:11;;;;;;;5.80;1.90;;;;;;;;;;4923228;28;89130;-75
2022/06/23 08:05:48;;;;;;;2.93;2.17;;;;;;;;;;4910504;28;89158;-75
2022/06/23 08:08:24;;;;;;;4.80;1.60;;;;;;;;;;4919438;28;91721;-75
2022/06/23 08:12:53;;;;;;;4.47;1.43;;;;;;;;;;4922969;28;88655;-75
2022/06/23 08:13:51;;;;;;;2.20;1.83;;;;;;;;;;4923111;28;89304;-75
2022/06/23 08:19:10;;;;;;;5.57;1.70;;;;;;;;;;4919615;28;88694;-76
2022/06/23 08:21:40;;;;;;;3.37;1.50;;;;;;;;;;4915646;28;89002;-75
2022/06/23 08:24:10;;;;;;;3.27;2.20;;;;;;;;;;4918869;28;90220;-75
2022/06/23 08:26:47;;;;;;;3.30;2.07;;;;;;;;;;4917117;28;88980;-76
2022/06/23 08:29:18;;;;;;;3.93;1.83;;;;;;;;;;4910660;28;88371;-75
2022/06/23 08:31:47;;;;;;;6.70;1.70;;;;;;;;;;4914046;28;88502;-75
2022/06/23 08:34:31;;;;;;;2.73;2.10;;;;;;;;;;4921139;28;89538;-75
2022/06/23 08:37:10;;;;;;;3.33;2.23;;;;;;;;;;4922211;28;90203;-75
2022/06/23 08:39:42;;;;;;;3.07;2.10;;;;;;;;;;4920740;28;88807;-74
2022/06/23 08:42:22;;;;;;;4.53;2.37;;;;;;;;;;4923489;28;88397;-75
2022/06/23 08:44:57;;;;;;;4.67;2.20;;;;;;;;;;4920797;28;89571;-75
2022/06/23 08:47:30;;;;;;;3.17;2.10;;;;;;;;;;4921011;28;89047;-74
2022/06/23 08:50:03;;;;;;;2.47;1.83;;;;;;;;;;4922313;28;89403;-75
2022/06/23 08:52:36;;;;;;;1.97;1.83;;;;;;;;;;4922299;28;88694;-75
2022/06/23 08:55:08;;;;;;;2.13;1.87;;;;;;;;;;4922719;28;90734;-74
2022/06/23 08:58:01;;;;;;;3.83;2.30;;;;;;;;;;4903426;28;90752;-75
2022/06/23 09:00:38;;;;;;;5.23;2.83;;;;;;;;;;4904060;28;89348;-75
2022/06/23 09:03:12;;;;;;;3.47;2.30;;;;;;;;;;4903789;28;88338;-75
2022/06/23 09:05:45;;;;;;;4.83;2.30;;;;;;;;;;4903647;28;90672;-75
2022/06/23 09:08:19;;;;;;;7.23;2.67;;;;;;;;;;4871860;28;89543;-75
2022/06/23 09:11:15;;;;;;;3.03;1.70;;;;;;;;;;4902388;28;88689;-75
2022/06/23 09:13:46;;;;;;;4.67;2.30;;;;;;;;;;4902807;28;88603;-75
2022/06/23 09:16:26;;;;;;;2.97;2.10;;;;;;;;;;4902297;28;89595;-75
2022/06/23 09:19:12;;;;;;;3.53;2.57;;;;;;;;;;4902406;28;88457;-75
2022/06/23 09:21:49;;;;;;;4.40;2.17;;;;;;;;;;4902882;28;88672;-75
2022/06/23 09:24:31;;;;;;;4.87;2.53;;;;;;;;;;4903578;28;89142;-75
2022/06/23 09:27:00;;;;;;;6.63;2.17;;;;;;;;;;4903375;28;93090;-75
2022/06/23 09:29:40;;;;;;;3.40;2.00;;;;;;;;;;4903358;28;88475;-75
2022/06/23 09:32:13;;;;;;;2.73;2.07;;;;;;;;;;4902978;28;88869;-75
2022/06/23 09:34:49;;;;;;;3.77;1.90;;;;;;;;;;4903413;28;88510;-75
2022/06/23 09:37:30;;;;;;;3.03;2.00;;;;;;;;;;4902371;28;90713;-76
2022/06/23 09:40:06;;;;;;;2.33;1.50;;;;;;;;;;4903098;28;89550;-75
2022/06/23 09:42:42;;;;;;;2.83;2.00;;;;;;;;;;4902395;28;88264;-75
2022/06/23 09:45:32;;;;;;;3.10;1.60;;;;;;;;;;4902812;28;88451;-75
2022/06/23 09:48:26;;;;;;;5.27;1.80;;;;;;;;;;4902790;28;92876;-75
2022/06/23 09:50:59;;;;;;;3.17;1.90;;;;;;;;;;4900409;28;89550;-76
2022/06/23 09:53:44;;;;;;;3.13;1.60;;;;;;;;;;4902026;28;89209;-75
2022/06/23 09:56:34;;;;;;;2.63;1.70;;;;;;;;;;4909553;28;88339;-75
2022/06/23 09:59:30;;;;;;;3.53;2.20;;;;;;;;;;4922161;28;88779;-75
2022/06/23 10:02:02;;;;;;;2.33;2.00;;;;;;;;;;4877350;28;88563;-76
2022/06/23 10:04:45;;;;;;;4.00;2.03;;;;;;;;;;4921293;28;89053;-76
2022/06/23 10:07:23;;;;;;;2.30;1.90;;;;;;;;;;4921738;28;88500;-75
2022/06/23 10:10:04;;;;;;;3.43;1.43;;;;;;;;;;4921350;28;89262;-75
2022/06/23 10:12:43;;;;;;;1.87;1.57;;;;;;;;;;4919550;28;92189;-75
2022/06/23 10:15:17;;;;;;;2.13;1.10;;;;;;;;;;4920391;28;88765;-75
2022/06/23 10:18:10;;;;;;;6.57;2.03;;;;;;;;;;4917648;28;88631;-75
2022/06/23 10:20:45;;;;;;;7.23;2.20;;;;;;;;;;4920527;28;90830;-76
2022/06/23 10:23:24;;;;;;;3.37;2.03;;;;;;;;;;4871038;28;89259;-75
2022/06/23 10:26:02;;;;;;;3.80;1.57;;;;;;;;;;4921127;28;88940;-75
2022/06/23 10:28:47;;;;;;;2.50;1.70;;;;;;;;;;4922154;28;88832;-76
2022/06/23 10:31:19;;;;;;;5.70;1.50;;;;;;;;;;4921397;28;89726;-76
2022/06/23 10:34:01;;;;;;;5.83;1.60;;;;;;;;;;4921611;28;90022;-75
2022/06/23 10:37:00;;;;;;;3.70;2.00;;;;;;;;;;4921721;28;91077;-76
2022/06/23 10:39:47;;;;;;;5.10;2.53;;;;;;;;;;4921170;28;88580;-75
2022/06/23 10:42:23;;;;;;;3.23;2.30;;;;;;;;;;4922296;28;90586;-76
2022/06/23 10:45:07;;;;;;;3.97;2.27;;;;;;;;;;4905018;28;90146;-75
2022/06/23 10:47:43;;;;;;;2.97;2.20;;;;;;;;;;4905766;28;92339;-75
2022/06/23 10:50:29;;;;;;;4.67;2.00;;;;;;;;;;4905416;28;88352;-75
2022/06/23 10:53:30;;;;;;;5.27;2.43;;;;;;;;;;4905004;28;89426;-75
2022/06/23 10:56:17;;;;;;;3.30;2.13;;;;;;;;;;4896661;28;89059;-75
2022/06/23 10:59:11;;;;;;;2.87;2.40;;;;;;;;;;4904594;28;89727;-75
2022/06/23 11:01:48;;;;;;;6.40;2.87;;;;;;;;;;4907156;28;88064;-75
2022/06/23 11:04:27;;;;;;;4.17;2.50;;;;;;;;;;4905219;28;91686;-75
2022/06/23 11:06:59;;;;;;;5.10;1.87;;;;;;;;;;4904881;28;89428;-75
2022/06/23 11:09:35;;;;;;;2.83;2.10;;;;;;;;;;4905544;28;88463;-76
2022/06/23 11:12:10;;;;;;;2.37;1.97;;;;;;;;;;4905382;28;88455;-75
2022/06/23 11:14:53;;;;;;;3.67;2.13;;;;;;;;;;4904803;28;89149;-75
2022/06/23 11:17:25;;;;;;;3.27;2.43;;;;;;;;;;4904011;28;89403;-75
2022/06/23 11:20:05;;;;;;;3.23;2.10;;;;;;;;;;4904869;28;89816;-75
2022/06/23 11:22:39;;;;;;;6.20;2.53;;;;;;;;;;4906357;28;88465;-76
2022/06/23 11:25:13;;;;;;;8.97;2.90;;;;;;;;;;4924279;28;92503;-76
2022/06/23 11:27:44;;;;;;;3.27;2.03;;;;;;;;;;4924289;28;90111;-76
2022/06/23 11:30:17;;;;;;;6.53;2.83;;;;;;;;;;4924980;28;88523;-75
2022/06/23 11:32:53;;;;;;;3.03;2.17;;;;;;;;;;4921404;28;88470;-75
2022/06/23 11:35:26;;;;;;;3.30;2.27;;;;;;;;;;4903588;28;90729;-75
2022/06/23 11:38:10;;;;;;;5.63;2.30;;;;;;;;;;4904294;28;89874;-75
2022/06/23 11:40:45;;;;;;;10.00;2.23;;;;;;;;;;4904159;28;88842;-75
2022/06/23 11:46:29;;;;;;;2.60;2.30;;;;;;;;;;4922311;28;89795;-80
2022/06/23 11:49:06;;;;;;;4.13;1.97;;;;;;;;;;4924228;28;88777;-76
2022/06/23 11:51:41;;;;;;;3.47;2.33;;;;;;;;;;4924110;28;89000;-76
2022/06/23 11:54:16;;;;;;;4.97;2.43;;;;;;;;;;4911221;28;88441;-77
2022/06/23 11:56:54;;;;;;;2.43;1.77;;;;;;;;;;4904077;28;90661;-76
2022/06/23 11:59:40;;;;;;;4.33;2.23;;;;;;;;;;4903746;28;88804;-76
2022/06/23 12:02:40;;;;;;;4.50;2.10;;;;;;;;;;4921417;28;88657;-76
2022/06/23 12:05:15;;;;;;;4.67;2.33;;;;;;;;;;4903940;28;88683;-75
2022/06/23 12:10:32;;;;;;;4.40;2.13;;;;;;;;;;4897370;28;90003;-76
2022/06/23 12:13:03;;;;;;;5.43;2.27;;;;;;;;;;4907687;28;88439;-76
2022/06/23 12:15:47;;;;;;;5.47;1.63;;;;;;;;;;4923291;28;88672;-76
2022/06/23 12:18:30;;;;;;;4.90;1.77;;;;;;;;;;4922142;28;89703;-75
2022/06/23 12:21:02;;;;;;;5.30;1.60;;;;;;;;;;4922574;28;89211;-76
2022/06/23 12:23:40;;;;;;;1.77;1.50;;;;;;;;;;4912405;28;88950;-76
2022/06/23 12:26:14;;;;;;;5.27;1.97;;;;;;;;;;4903820;28;88419;-75
2022/06/23 12:28:47;;;;;;;2.20;1.67;;;;;;;;;;4914303;28;90878;-76
2022/06/23 12:31:18;;;;;;;3.50;1.67;;;;;;;;;;4923280;28;92541;-76
2022/06/23 12:33:59;;;;;;;3.50;2.20;;;;;;;;;;4922020;28;89113;-76
2022/06/23 12:36:35;;;;;;;4.33;1.97;;;;;;;;;;4922870;28;88560;-75
2022/06/23 12:39:08;;;;;;;4.80;2.10;;;;;;;;;;4921557;28;89774;-76
2022/06/23 12:41:38;;;;;;;2.17;1.70;;;;;;;;;;4922508;28;89455;-76
2022/06/23 12:44:10;;;;;;;6.27;2.20;;;;;;;;;;4920308;28;89997;-75
2022/06/23 12:46:45;;;;;;;6.27;2.30;;;;;;;;;;4919532;28;88726;-76
2022/06/23 12:49:44;;;;;;;2.13;1.57;;;;;;;;;;4918811;28;91303;-77
2022/06/23 12:52:37;;;;;;;2.17;1.93;;;;;;;;;;4916794;28;91197;-75
2022/06/23 12:55:27;;;;;;;2.90;2.13;;;;;;;;;;4921602;28;91457;-75
2022/06/23 12:58:16;;;;;;;4.90;2.53;;;;;;;;;;4919551;28;88405;-76
2022/06/23 13:00:51;;;;;;;3.27;1.87;;;;;;;;;;4921663;28;89716;-76
2022/06/23 13:03:21;;;;;;;2.20;1.77;;;;;;;;;;4907995;28;89065;-75
2022/06/23 13:05:50;;;;;;;3.53;1.90;;;;;;;;;;4920438;28;89038;-77
2022/06/23 13:08:30;;;;;;;3.30;2.27;;;;;;;;;;4902966;28;88736;-67
2022/06/23 13:11:00;;;;;;;3.33;2.33;;;;;;;;;;4921335;28;89662;-72
2022/06/23 13:13:34;;;;;;;2.90;1.87;;;;;;;;;;4921499;28;91442;-73
2022/06/23 13:16:06;;;;;;;2.90;2.10;;;;;;;;;;4922315;28;90397;-72
2022/06/23 13:18:36;;;;;;;2.07;1.70;;;;;;;;;;4890020;28;88568;-73
2022/06/23 13:21:11;;;;;;;3.83;2.60;;;;;;;;;;4921598;28;90648;-72
2022/06/23 13:23:46;;;;;;;3.10;2.33;;;;;;;;;;4918354;28;89959;-73
2022/06/23 13:26:20;;;;;;;3.40;2.40;;;;;;;;;;4920717;28;89709;-74
2022/06/23 13:31:42;;;;;;;2.90;1.90;;;;;;;;;;4920242;28;89599;-72
2022/06/23 13:34:27;;;;;;;2.40;1.93;;;;;;;;;;4921640;28;89982;-72
2022/06/23 13:36:57;;;;;;;5.60;2.20;;;;;;;;;;4922085;28;89086;-73
2022/06/23 13:39:43;;;;;;;1.80;1.60;;;;;;;;;;4919118;28;88603;-73
2022/06/23 13:42:24;;;;;;;4.00;1.70;;;;;;;;;;4915165;28;92730;-73
2022/06/23 13:44:58;;;;;;;1.30;1.20;;;;;;;;;;4901511;28;89830;-73
2022/06/23 13:47:30;;;;;;;2.53;1.67;;;;;;;;;;4902580;28;90482;-73
2022/06/23 13:50:00;;;;;;;3.80;1.50;;;;;;;;;;4913107;28;88485;-73
2022/06/23 13:52:38;;;;;;;3.67;1.50;;;;;;;;;;4920013;28;89615;-72
2022/06/23 13:55:13;;;;;;;1.77;1.40;;;;;;;;;;4920871;28;89175;-73
2022/06/23 13:57:47;;;;;;;1.87;1.30;;;;;;;;;;4920251;28;88984;-73
2022/06/23 14:00:18;;;;;;;1.40;1.30;;;;;;;;;;4891079;28;88600;-73
2022/06/23 14:03:03;;;;;;;1.40;1.30;;;;;;;;;;4911227;28;89476;-73
2022/06/23 14:05:36;;;;;;;4.00;1.50;;;;;;;;;;4901883;28;90013;-73
2022/06/23 14:08:14;;;;;;;3.47;1.30;;;;;;;;;;4901895;28;90496;-72
2022/06/23 14:10:52;;;;;;;3.70;1.20;;;;;;;;;;4901131;28;88538;-73
2022/06/23 14:13:36;;;;;;;2.40;1.53;;;;;;;;;;4903450;28;89287;-73
2022/06/23 14:16:05;;;;;;;1.93;1.33;;;;;;;;;;4901659;28;90228;-74
2022/06/23 14:18:37;;;;;;;2.40;1.60;;;;;;;;;;4901679;28;88750;-73
2022/06/23 14:21:12;;;;;;;3.20;1.43;;;;;;;;;;4905156;28;88485;-73
2022/06/23 14:23:46;;;;;;;2.00;1.60;;;;;;;;;;4905769;28;89990;-72
2022/06/23 14:26:21;;;;;;;2.83;0.93;;;;;;;;;;4907665;28;89553;-73
2022/06/23 14:31:47;;;;;;;1.73;1.20;;;;;;;;;;4918877;28;88472;-73
2022/06/23 14:34:19;;;;;;;1.50;1.40;;;;;;;;;;4918702;28;90623;-72
2022/06/23 14:36:54;;;;;;;3.10;1.23;;;;;;;;;;4920803;28;91842;-73
2022/06/23 14:39:26;;;;;;;4.03;1.47;;;;;;;;;;4920005;28;88728;-72
2022/06/23 14:42:17;;;;;;;1.63;1.50;;;;;;;;;;4919576;28;88452;-72
2022/06/23 14:44:52;;;;;;;2.07;1.40;;;;;;;;;;4904260;28;89752;-73
2022/06/23 14:47:28;;;;;;;2.03;1.23;;;;;;;;;;4916414;28;89257;-74
2022/06/23 14:50:14;;;;;;;1.60;1.27;;;;;;;;;;4919842;28;91206;-72
2022/06/23 14:52:52;;;;;;;1.50;1.03;;;;;;;;;;4919322;28;88766;-72
2022/06/23 14:55:22;;;;;;;2.87;1.33;;;;;;;;;;4918850;28;89483;-72
2022/06/23 14:57:56;;;;;;;1.57;1.27;;;;;;;;;;4917653;28;90897;-72
2022/06/23 15:00:41;;;;;;;1.97;1.30;;;;;;;;;;4918918;28;91275;-72
2022/06/23 15:03:18;;;;;;;3.27;1.40;;;;;;;;;;4919214;28;88767;-72
2022/06/23 15:05:55;;;;;;;1.87;1.13;;;;;;;;;;4918906;28;90666;-72
2022/06/23 15:08:28;;;;;;;1.67;1.30;;;;;;;;;;4918297;28;90111;-72
2022/06/23 15:11:00;;;;;;;1.90;1.20;;;;;;;;;;4917736;28;89237;-72
2022/06/23 15:13:46;;;;;;;1.10;1.00;;;;;;;;;;4916363;28;88683;-72
2022/06/23 15:16:23;;;;;;;1.50;1.07;;;;;;;;;;4918148;28;91013;-72
2022/06/23 15:19:01;;;;;;;1.50;1.20;;;;;;;;;;4919435;28;89968;-72
2022/06/23 15:24:24;;;;;;;3.50;1.60;;;;;;;;;;4919566;28;88688;-72
2022/06/23 15:26:54;;;;;;;3.50;1.70;;;;;;;;;;4920055;28;91998;-72
2022/06/23 15:29:24;;;;;;;1.70;1.60;;;;;;;;;;4905812;28;90447;-72
2022/06/23 15:32:00;;;;;;;2.70;1.40;;;;;;;;;;4916586;28;88680;-72
2022/06/23 15:34:30;;;;;;;2.97;1.33;;;;;;;;;;4920832;28;88634;-72
2022/06/23 15:37:11;;;;;;;1.97;1.40;;;;;;;;;;4923034;28;89566;-74
2022/06/23 15:39:41;;;;;;;2.50;1.57;;;;;;;;;;4923425;28;90480;-72
2022/06/23 15:42:13;;;;;;;4.30;2.67;;;;;;;;;;4908773;28;88644;-74
2022/06/23 15:44:53;;;;;;;3.47;2.37;;;;;;;;;;4904439;28;88413;-73
2022/06/23 15:47:28;;;;;;;2.60;1.57;;;;;;;;;;4922400;28;88638;-73
2022/06/23 15:50:04;;;;;;;3.30;1.93;;;;;;;;;;4922260;28;90249;-74
2022/06/23 15:52:37;;;;;;;2.63;1.80;;;;;;;;;;4919875;28;88567;-72
2022/06/23 15:55:11;;;;;;;1.60;1.50;;;;;;;;;;4905170;28;88668;-72
2022/06/23 15:57:42;;;;;;;1.63;1.53;;;;;;;;;;4919286;28;93012;-72
2022/06/23 16:00:20;;;;;;;6.03;2.10;;;;;;;;;;4921741;28;92794;-73
2022/06/23 16:02:57;;;;;;;5.67;1.63;;;;;;;;;;4918739;28;90105;-72
2022/06/23 16:05:28;;;;;;;1.87;1.43;;;;;;;;;;4922643;28;88722;-72